createdAt,value
2022-09-13T00:01:35.704Z,2.60
2022-09-13T00:04:02.893Z,2.17
2022-09-13T00:06:29.694Z,2.97
2022-09-13T00:08:56.637Z,2.80
2022-09-13T00:11:26.398Z,2.25
2022-09-13T00:13:54.764Z,2.22
2022-09-13T00:16:24.983Z,2.40
2022-09-13T00:18:52.817Z,2.20
2022-09-13T00:21:21.795Z,2.03
2022-09-13T00:23:51.203Z,2.28
2022-09-13T00:26:27.789Z,2.30
2022-09-13T00:28:57.266Z,1.95
2022-09-13T00:31:27.672Z,2.20
2022-09-13T00:33:55.174Z,1.95
2022-09-13T00:36:21.977Z,2.15
2022-09-13T00:38:48.804Z,1.67
2022-09-13T00:41:17.882Z,2.10
2022-09-13T00:43:56.915Z,1.90
2022-09-13T00:46:26.514Z,2.03
2022-09-13T00:49:21.357Z,1.73
2022-09-13T00:51:56.249Z,1.80
2022-09-13T00:54:26.957Z,1.60
2022-09-13T00:56:58.145Z,1.63
2022-09-13T00:59:35.621Z,1.77
2022-09-13T01:02:04.561Z,1.90
2022-09-13T01:04:35.072Z,1.77
2022-09-13T01:07:06.206Z,1.55
2022-09-13T01:09:36.978Z,2.15
2022-09-13T01:12:10.441Z,2.10
2022-09-13T01:14:37.560Z,2.00
2022-09-13T01:17:04.734Z,1.80
2022-09-13T01:19:31.939Z,1.90
2022-09-13T01:22:23.873Z,2.15
2022-09-13T01:25:28.505Z,1.83
2022-09-13T01:28:16.619Z,2.58
2022-09-13T01:31:12.360Z,2.13
2022-09-13T01:33:58.771Z,2.13
2022-09-13T01:36:42.845Z,2.17
2022-09-13T01:39:22.813Z,2.10
2022-09-13T01:42:22.531Z,2.42
2022-09-13T01:44:57.965Z,2.22
2022-09-13T01:47:38.829Z,2.03
2022-09-13T01:50:23.380Z,2.00
2022-09-13T01:53:01.236Z,1.75
2022-09-13T01:55:50.788Z,2.30
2022-09-13T01:58:22.481Z,1.95
2022-09-13T02:01:30.926Z,1.90
2022-09-13T02:04:13.409Z,2.25
2022-09-13T02:06:50.722Z,2.10
2022-09-13T02:09:22.217Z,2.00
2022-09-13T02:11:58.378Z,1.83
2022-09-13T02:14:36.390Z,2.17
2022-09-13T02:17:13.571Z,1.92
2022-09-13T02:19:55.118Z,1.80
2022-09-13T02:22:29.061Z,1.92
2022-09-13T02:25:00.240Z,2.10
2022-09-13T02:27:33.192Z,2.20
2022-09-13T02:30:07.714Z,2.22
2022-09-13T02:32:44.229Z,2.10
2022-09-13T02:35:32.716Z,2.13
2022-09-13T02:38:10.457Z,2.05
2022-09-13T02:40:46.198Z,2.15
2022-09-13T02:43:20.943Z,2.25
2022-09-13T02:45:57.144Z,2.33
2022-09-13T02:48:41.888Z,2.20
2022-09-13T02:51:30.522Z,2.25
2022-09-13T02:54:18.686Z,2.17
2022-09-13T02:56:59.411Z,2.53
2022-09-13T02:59:26.846Z,2.40
2022-09-13T03:02:12.823Z,2.40
2022-09-13T03:04:40.081Z,2.42
2022-09-13T03:07:12.349Z,2.60
2022-09-13T03:09:54.641Z,2.35
2022-09-13T03:12:47.978Z,2.00
2022-09-13T03:15:32.846Z,2.40
2022-09-13T03:18:37.531Z,2.60
2022-09-13T03:21:27.761Z,2.33
2022-09-13T03:24:15.617Z,2.33
2022-09-13T03:27:03.534Z,2.50
2022-09-13T03:30:11.636Z,2.63
2022-09-13T03:32:53.315Z,2.47
2022-09-13T03:35:27.949Z,2.75
2022-09-13T03:38:16.041Z,2.22
2022-09-13T03:40:49.970Z,2.30
2022-09-13T03:43:25.780Z,2.60
2022-09-13T03:45:56.939Z,2.92
2022-09-13T03:48:24.716Z,2.72
2022-09-13T03:50:51.802Z,3.28
2022-09-13T03:53:23.565Z,2.90
2022-09-13T03:55:50.320Z,2.67
2022-09-13T03:58:19.361Z,2.80
2022-09-13T04:00:46.512Z,2.63
2022-09-13T04:03:14.132Z,2.78
2022-09-13T04:05:41.045Z,3.38
2022-09-13T04:08:08.412Z,2.65
2022-09-13T04:10:36.289Z,3.00
2022-09-13T04:13:03.957Z,3.25
2022-09-13T04:15:31.316Z,3.03
2022-09-13T04:18:00.035Z,3.08
2022-09-13T04:20:27.014Z,2.70
2022-09-13T04:22:55.439Z,3.30
2022-09-13T04:25:23.146Z,2.78
2022-09-13T04:27:55.289Z,2.88
2022-09-13T04:30:23.745Z,2.83
2022-09-13T04:32:50.686Z,2.60
2022-09-13T04:35:19.612Z,2.70
2022-09-13T04:37:48.426Z,2.50
2022-09-13T04:40:15.472Z,2.80
2022-09-13T04:42:46.293Z,3.05
2022-09-13T04:45:13.530Z,3.10
2022-09-13T04:47:40.645Z,2.67
2022-09-13T04:50:08.114Z,2.75
2022-09-13T04:52:34.901Z,2.97
2022-09-13T04:55:02.081Z,2.80
2022-09-13T04:57:29.549Z,2.60
2022-09-13T04:59:56.453Z,3.00
2022-09-13T05:02:23.351Z,3.30
2022-09-13T05:04:50.184Z,3.15
2022-09-13T05:07:18.228Z,3.47
2022-09-13T05:09:45.123Z,2.97
2022-09-13T05:12:13.243Z,3.33
2022-09-13T05:14:40.139Z,3.30
2022-09-13T05:17:07.117Z,3.30
2022-09-13T05:19:34.962Z,3.55
2022-09-13T05:22:02.467Z,3.30
2022-09-13T05:24:29.243Z,3.55
2022-09-13T05:26:56.118Z,3.85
2022-09-13T05:29:22.866Z,4.53
2022-09-13T05:31:49.748Z,4.55
2022-09-13T05:34:17.979Z,5.32
2022-09-13T05:36:48.443Z,5.47
2022-09-13T05:40:00.384Z,5.82
2022-09-13T05:42:08.045Z,6.85
2022-09-13T05:44:35.919Z,6.53
2022-09-13T05:47:05.795Z,6.65
2022-09-13T05:49:33.813Z,7.13
2022-09-13T05:52:00.677Z,6.97
2022-09-13T05:54:27.502Z,7.07
2022-09-13T05:56:57.452Z,6.93
2022-09-13T05:59:24.469Z,6.93
2022-09-13T06:01:54.705Z,7.15
2022-09-13T06:04:24.750Z,8.10
2022-09-13T06:06:52.638Z,6.90
2022-09-13T06:09:21.025Z,7.03
2022-09-13T06:11:47.910Z,7.00
2022-09-13T06:14:14.821Z,6.85
2022-09-13T06:16:42.540Z,6.70
2022-09-13T06:19:09.350Z,7.15
2022-09-13T06:21:36.456Z,6.78
2022-09-13T06:24:03.948Z,6.93
2022-09-13T06:26:31.979Z,5.68
2022-09-13T06:28:58.853Z,6.65
2022-09-13T06:31:28.165Z,6.40
2022-09-13T06:34:00.322Z,6.35
2022-09-13T06:36:27.447Z,6.10
2022-09-13T06:38:54.492Z,6.18
2022-09-13T06:41:24.722Z,7.57
2022-09-13T06:43:57.689Z,7.32
2022-09-13T06:46:26.527Z,6.57
2022-09-13T06:48:53.986Z,6.85
2022-09-13T06:51:23.474Z,6.35
2022-09-13T06:53:52.178Z,6.25
2022-09-13T06:56:33.812Z,6.28
2022-09-13T06:59:05.526Z,5.95
2022-09-13T07:01:43.649Z,6.03
2022-09-13T07:04:17.338Z,6.10
2022-09-13T07:06:49.102Z,6.72
2022-09-13T07:09:19.112Z,5.85
2022-09-13T07:11:49.051Z,6.18
2022-09-13T07:14:22.785Z,5.97
2022-09-13T07:16:51.871Z,5.63
2022-09-13T07:19:26.513Z,6.13
2022-09-13T07:21:54.182Z,6.03
2022-09-13T07:24:23.133Z,7.03
2022-09-13T07:26:50.741Z,6.43
2022-09-13T07:29:22.564Z,6.32
2022-09-13T07:31:52.444Z,6.80
2022-09-13T07:34:21.765Z,6.00
2022-09-13T07:36:50.127Z,5.95
2022-09-13T07:39:22.423Z,6.07
2022-09-13T07:41:54.190Z,5.93
2022-09-13T07:44:23.053Z,5.65
2022-09-13T07:46:51.041Z,5.25
2022-09-13T07:49:19.246Z,5.28
2022-09-13T07:51:46.329Z,5.13
2022-09-13T07:54:16.417Z,4.95
2022-09-13T07:56:44.726Z,4.55
2022-09-13T07:59:15.200Z,4.32
2022-09-13T08:01:44.613Z,4.10
2022-09-13T08:04:15.041Z,3.60
2022-09-13T08:06:43.709Z,4.03
2022-09-13T08:09:12.222Z,3.60
2022-09-13T08:11:42.450Z,4.07
2022-09-13T08:14:11.738Z,3.90
2022-09-13T08:16:39.472Z,3.53
2022-09-13T08:19:07.490Z,3.65
2022-09-13T08:21:36.741Z,3.90
2022-09-13T08:24:05.584Z,3.97
2022-09-13T08:26:34.556Z,3.92
2022-09-13T08:29:03.902Z,4.25
2022-09-13T08:31:31.969Z,4.38
2022-09-13T08:33:59.426Z,4.03
2022-09-13T08:36:27.708Z,3.60
2022-09-13T08:39:01.228Z,4.53
2022-09-13T08:41:40.421Z,4.20
2022-09-13T08:44:29.497Z,4.20
2022-09-13T08:47:11.870Z,3.97
2022-09-13T08:49:45.757Z,4.32
2022-09-13T08:52:32.526Z,4.80
2022-09-13T08:55:07.004Z,4.35
2022-09-13T08:57:53.216Z,4.60
2022-09-13T09:00:32.319Z,4.68
2022-09-13T09:03:17.089Z,4.55
2022-09-13T09:05:49.662Z,4.88
2022-09-13T09:08:40.236Z,5.30
2022-09-13T09:11:37.796Z,5.35
2022-09-13T09:14:22.768Z,5.03
2022-09-13T09:16:55.218Z,5.07
2022-09-13T09:19:22.032Z,5.65
2022-09-13T09:21:51.222Z,5.32
2022-09-13T09:24:24.024Z,5.75
2022-09-13T09:26:55.921Z,5.85
2022-09-13T09:29:44.171Z,6.18
2022-09-13T09:32:47.393Z,6.43
2022-09-13T09:35:28.614Z,7.35
2022-09-13T09:38:27.856Z,7.57
2022-09-13T09:40:54.678Z,7.03
2022-09-13T09:43:33.464Z,5.80
2022-09-13T09:46:02.978Z,5.53
2022-09-13T09:48:40.132Z,5.60
2022-09-13T09:51:10.551Z,5.63
2022-09-13T09:53:43.452Z,5.00
2022-09-13T09:56:24.353Z,5.82
2022-09-13T09:58:54.416Z,5.53
2022-09-13T10:01:37.733Z,5.30
2022-09-13T10:04:10.775Z,4.57
2022-09-13T10:06:40.433Z,4.60
2022-09-13T10:09:22.036Z,5.05
2022-09-13T10:11:56.619Z,4.80
2022-09-13T10:14:38.114Z,5.25
2022-09-13T10:17:16.555Z,5.07
2022-09-13T10:20:03.958Z,5.18
2022-09-13T10:22:32.600Z,5.47
2022-09-13T10:25:23.260Z,5.03
2022-09-13T10:28:00.958Z,5.55
2022-09-13T10:30:38.831Z,5.47
2022-09-13T10:33:08.222Z,5.13
2022-09-13T10:35:36.024Z,4.30
2022-09-13T10:38:02.871Z,4.47
2022-09-13T10:40:38.559Z,4.70
2022-09-13T10:43:15.241Z,4.90
2022-09-13T10:45:42.782Z,4.65
2022-09-13T10:48:16.349Z,5.03
2022-09-13T10:51:14.849Z,4.72
2022-09-13T10:53:42.956Z,3.90
2022-09-13T10:56:26.398Z,4.35
2022-09-13T10:59:19.655Z,4.00
2022-09-13T11:02:24.937Z,4.00
2022-09-13T11:05:14.577Z,3.90
2022-09-13T11:08:04.467Z,4.13
2022-09-13T11:10:51.241Z,4.32
2022-09-13T11:13:40.825Z,4.30
2022-09-13T11:16:15.622Z,4.07
2022-09-13T11:18:58.034Z,3.78
2022-09-13T11:24:17.819Z,3.40
2022-09-13T11:27:21.549Z,3.65
2022-09-13T11:30:33.366Z,3.45
2022-09-13T11:33:19.382Z,3.67
2022-09-13T11:36:11.827Z,3.55
2022-09-13T11:39:13.916Z,3.38
2022-09-13T11:41:51.262Z,3.25
2022-09-13T11:44:50.930Z,3.22
2022-09-13T11:47:33.482Z,3.38
2022-09-13T11:50:23.236Z,3.22
2022-09-13T11:53:06.934Z,3.15
2022-09-13T11:55:40.738Z,3.15
2022-09-13T11:58:35.385Z,3.33
2022-09-13T12:01:08.387Z,4.30
2022-09-13T12:03:48.862Z,4.15
2022-09-13T12:06:28.885Z,3.80
2022-09-13T12:09:08.211Z,4.53
2022-09-13T12:12:05.026Z,3.83
2022-09-13T12:14:59.917Z,3.88
2022-09-13T12:17:34.999Z,4.20
2022-09-13T12:20:05.261Z,5.03
2022-09-13T12:22:35.639Z,4.95
2022-09-13T12:25:33.302Z,4.30
2022-09-13T12:28:08.805Z,4.07
2022-09-13T12:31:04.750Z,4.68
2022-09-13T12:33:31.772Z,3.50
2022-09-13T12:36:25.777Z,3.80
2022-09-13T12:39:08.555Z,4.30
2022-09-13T12:42:35.050Z,3.80
2022-09-13T12:45:17.679Z,3.83
2022-09-13T12:47:52.698Z,3.70
2022-09-13T12:50:58.992Z,3.65
2022-09-13T12:54:21.071Z,3.58
2022-09-13T12:57:10.297Z,5.32
2022-09-13T12:59:55.540Z,4.10
2022-09-13T13:02:36.276Z,4.93
2022-09-13T13:05:15.561Z,4.38
2022-09-13T13:07:46.409Z,4.38
2022-09-13T13:10:35.193Z,3.90
2022-09-13T13:13:22.701Z,4.38
2022-09-13T13:15:50.584Z,4.95
2022-09-13T13:18:30.914Z,4.50
2022-09-13T13:20:58.721Z,4.80
2022-09-13T13:23:36.521Z,4.90
2022-09-13T13:26:09.245Z,5.45
2022-09-13T13:28:45.271Z,4.95
2022-09-13T13:31:27.831Z,5.25
2022-09-13T13:34:02.127Z,7.38
2022-09-13T13:36:42.893Z,4.55
2022-09-13T13:39:23.202Z,5.25
2022-09-13T13:42:23.511Z,5.35
2022-09-13T13:44:53.461Z,5.30
2022-09-13T13:47:20.345Z,4.43
2022-09-13T13:50:03.719Z,5.32
2022-09-13T13:52:52.354Z,4.00
2022-09-13T13:55:31.406Z,4.32
2022-09-13T13:58:05.752Z,4.72
2022-09-13T14:00:36.521Z,4.32
2022-09-13T14:03:03.337Z,4.80
2022-09-13T14:06:08.114Z,4.72
2022-09-13T14:11:50.549Z,4.60
2022-09-13T14:14:38.658Z,4.82
2022-09-13T14:17:33.361Z,4.88
2022-09-13T14:20:05.617Z,5.20
2022-09-13T14:25:23.173Z,4.85
2022-09-13T14:27:52.823Z,6.10
2022-09-13T14:30:24.082Z,5.72
2022-09-13T14:32:56.478Z,5.50
2022-09-13T14:35:36.876Z,5.47
2022-09-13T14:38:13.196Z,5.85
2022-09-13T14:40:40.555Z,6.07
2022-09-13T14:43:21.289Z,6.00
2022-09-13T14:45:53.942Z,5.97
2022-09-13T14:48:24.877Z,5.70
2022-09-13T14:50:57.713Z,6.20
2022-09-13T14:53:27.129Z,6.95
2022-09-13T14:56:01.849Z,9.45
2022-09-13T14:58:46.590Z,7.88
2022-09-13T15:01:17.934Z,6.60
2022-09-13T15:03:46.455Z,6.40
2022-09-13T15:06:27.222Z,6.50
2022-09-13T15:08:58.912Z,6.53
2022-09-13T15:11:32.509Z,6.40
2022-09-13T15:14:23.782Z,6.30
2022-09-13T15:16:53.455Z,6.13
2022-09-13T15:19:31.918Z,6.90
2022-09-13T15:22:14.306Z,6.40
2022-09-13T15:24:47.677Z,7.05
2022-09-13T15:27:42.459Z,5.57
2022-09-13T15:30:30.292Z,6.35
2022-09-13T15:33:15.926Z,6.43
2022-09-13T15:35:45.435Z,6.20
2022-09-13T15:38:30.924Z,5.57
2022-09-13T15:41:13.161Z,6.53
2022-09-13T15:43:41.036Z,6.10
2022-09-13T15:46:16.679Z,5.80
2022-09-13T15:48:59.031Z,5.65
2022-09-13T15:51:26.705Z,6.07
2022-09-13T15:53:55.018Z,6.03
2022-09-13T15:56:28.197Z,6.20
2022-09-13T15:58:55.105Z,6.75
2022-09-13T16:01:22.073Z,5.78
2022-09-13T16:03:50.741Z,7.03
2022-09-13T16:06:24.480Z,7.25
2022-09-13T16:08:51.726Z,7.13
2022-09-13T16:11:18.578Z,6.65
2022-09-13T16:13:45.414Z,6.78
2022-09-13T16:16:14.703Z,7.00
2022-09-13T16:18:41.642Z,7.22
2022-09-13T16:21:08.734Z,7.35
2022-09-13T16:23:35.667Z,7.15
2022-09-13T16:26:04.883Z,6.78
2022-09-13T16:28:31.741Z,6.53
2022-09-13T16:30:58.644Z,6.90
2022-09-13T16:33:25.717Z,6.90
2022-09-13T16:35:52.571Z,6.10
2022-09-13T16:38:20.352Z,6.22
2022-09-13T16:40:47.697Z,7.05
2022-09-13T16:43:15.630Z,7.10
2022-09-13T16:45:42.902Z,6.80
2022-09-13T16:48:11.018Z,6.45
2022-09-13T16:50:42.190Z,6.50
2022-09-13T16:53:10.101Z,7.22
2022-09-13T16:55:37.051Z,7.28
2022-09-13T16:58:04.025Z,6.50
2022-09-13T17:00:31.003Z,5.82
2022-09-13T17:02:57.844Z,6.55
2022-09-13T17:05:25.097Z,6.85
2022-09-13T17:07:53.158Z,5.45
2022-09-13T17:10:21.458Z,6.38
2022-09-13T17:12:48.811Z,5.53
2022-09-13T17:15:17.102Z,6.53
2022-09-13T17:17:44.981Z,5.97
2022-09-13T17:20:13.371Z,6.50
2022-09-13T17:22:40.839Z,6.18
2022-09-13T17:25:08.545Z,5.93
2022-09-13T17:27:36.661Z,6.85
2022-09-13T17:30:05.192Z,7.40
2022-09-13T17:32:32.246Z,7.60
2022-09-13T17:34:59.242Z,8.15
2022-09-13T17:37:27.073Z,7.63
2022-09-13T17:39:54.046Z,7.53
2022-09-13T17:42:23.305Z,8.23
2022-09-13T17:44:51.012Z,8.07
2022-09-13T17:47:17.897Z,7.88
2022-09-13T17:49:46.780Z,8.23
2022-09-13T17:52:13.835Z,8.85
2022-09-13T17:54:40.754Z,8.98
2022-09-13T17:57:07.694Z,8.73
2022-09-13T17:59:35.715Z,9.07
2022-09-13T18:02:02.720Z,9.18
2022-09-13T18:04:29.561Z,9.40
2022-09-13T18:06:56.444Z,9.63
2022-09-13T18:09:24.483Z,9.98
2022-09-13T18:11:51.270Z,9.80
2022-09-13T18:14:19.351Z,10.07
2022-09-13T18:16:47.061Z,10.18
2022-09-13T18:19:14.058Z,10.57
2022-09-13T18:21:41.216Z,10.13
2022-09-13T18:24:08.208Z,10.40
2022-09-13T18:26:35.841Z,10.88
2022-09-13T18:29:09.378Z,10.48
2022-09-13T18:31:38.541Z,9.93
2022-09-13T18:34:09.703Z,11.02
2022-09-13T18:36:37.329Z,9.90
2022-09-13T18:39:06.281Z,9.43
2022-09-13T18:41:35.822Z,9.27
2022-09-13T18:44:05.050Z,9.70
2022-09-13T18:46:34.765Z,9.70
2022-09-13T18:49:05.075Z,9.35
2022-09-13T18:51:35.332Z,9.68
2022-09-13T18:54:03.450Z,9.07
2022-09-13T18:56:33.072Z,9.02
2022-09-13T18:59:02.439Z,8.80
2022-09-13T19:01:33.980Z,8.45
2022-09-13T19:04:10.379Z,8.68
2022-09-13T19:06:39.816Z,9.73
2022-09-13T19:09:08.697Z,8.65
2022-09-13T19:11:46.840Z,8.65
2022-09-13T19:14:27.243Z,9.05
2022-09-13T19:17:01.289Z,8.85
2022-09-13T19:19:30.293Z,9.18
2022-09-13T19:21:57.376Z,9.55
2022-09-13T19:24:28.473Z,8.40
2022-09-13T19:26:55.460Z,8.85
2022-09-13T19:29:23.393Z,8.57
2022-09-13T19:31:52.481Z,8.95
2022-09-13T19:34:22.057Z,9.00
2022-09-13T19:36:52.475Z,8.82
2022-09-13T19:39:20.373Z,9.93
2022-09-13T19:41:47.399Z,9.30
2022-09-13T19:44:14.685Z,9.45
2022-09-13T19:46:43.574Z,9.50
2022-09-13T19:49:16.442Z,9.60
2022-09-13T19:51:50.176Z,8.32
2022-09-13T19:54:19.390Z,9.20
2022-09-13T19:56:46.901Z,9.00
2022-09-13T19:59:19.797Z,8.95
2022-09-13T20:01:47.806Z,9.18
2022-09-13T20:04:20.782Z,7.95
2022-09-13T20:06:50.040Z,8.65
2022-09-13T20:09:18.822Z,8.82
2022-09-13T20:11:48.719Z,7.65
2022-09-13T20:14:19.369Z,7.20
2022-09-13T20:16:47.801Z,7.90
2022-09-13T20:19:39.852Z,8.25
2022-09-13T20:22:09.847Z,7.75
2022-09-13T20:24:37.072Z,7.60
2022-09-13T20:27:04.257Z,8.32
2022-09-13T20:29:32.242Z,7.78
2022-09-13T20:31:59.978Z,8.35
2022-09-13T20:34:28.257Z,7.40
2022-09-13T20:36:55.108Z,7.57
2022-09-13T20:39:22.964Z,8.30
2022-09-13T20:41:50.876Z,8.68
2022-09-13T20:44:20.775Z,8.77
2022-09-13T20:46:47.570Z,8.02
2022-09-13T20:49:15.587Z,9.20
2022-09-13T20:51:43.529Z,9.00
2022-09-13T20:54:13.257Z,8.70
2022-09-13T20:56:40.833Z,8.82
2022-09-13T20:59:07.776Z,8.95
2022-09-13T21:01:36.561Z,9.00
2022-09-13T21:04:03.742Z,10.43
2022-09-13T21:06:36.728Z,10.70
2022-09-13T21:09:03.769Z,10.63
2022-09-13T21:11:35.845Z,9.93
2022-09-13T21:14:06.076Z,10.20
2022-09-13T21:16:45.160Z,10.25
2022-09-13T21:19:12.257Z,10.25
2022-09-13T21:21:41.673Z,11.82
2022-09-13T21:24:14.759Z,12.25
2022-09-13T21:26:42.774Z,13.13
2022-09-13T21:29:10.716Z,15.23
2022-09-13T21:31:38.118Z,17.20
2022-09-13T21:34:15.082Z,16.75
2022-09-13T21:36:42.955Z,16.90
2022-09-13T21:39:10.204Z,16.40
2022-09-13T21:41:37.299Z,16.05
2022-09-13T21:44:04.556Z,16.65
2022-09-13T21:46:34.080Z,16.52
2022-09-13T21:49:06.477Z,16.33
2022-09-13T21:54:06.719Z,16.05
2022-09-13T21:56:38.403Z,17.40
2022-09-13T21:59:08.922Z,16.95
2022-09-13T22:01:39.131Z,18.27
2022-09-13T22:04:07.504Z,17.35
2022-09-13T22:06:35.173Z,16.38
2022-09-13T22:09:07.745Z,17.60
2022-09-13T22:11:44.466Z,19.05
2022-09-13T22:14:13.928Z,19.20
2022-09-13T22:16:42.586Z,20.30
2022-09-13T22:19:11.916Z,20.17
2022-09-13T22:21:41.670Z,20.55
2022-09-13T22:24:12.756Z,20.48
2022-09-13T22:26:40.660Z,20.52
2022-09-13T22:29:08.704Z,19.70
2022-09-13T22:31:38.693Z,16.10
2022-09-13T22:34:06.904Z,14.25
2022-09-13T22:36:34.045Z,11.77
2022-09-13T22:39:00.902Z,11.38
2022-09-13T22:41:31.222Z,11.20
2022-09-13T22:43:59.701Z,10.30
2022-09-13T22:46:34.984Z,10.05
2022-09-13T22:49:02.633Z,9.55
2022-09-13T22:51:29.757Z,10.25
2022-09-13T22:53:56.888Z,9.95
2022-09-13T22:56:32.137Z,8.77
2022-09-13T22:59:08.489Z,8.55
2022-09-13T23:01:36.179Z,8.38
2022-09-13T23:04:04.007Z,8.18
2022-09-13T23:06:32.032Z,8.63
2022-09-13T23:09:01.223Z,7.85
2022-09-13T23:11:31.722Z,8.70
2022-09-13T23:14:01.772Z,8.90
2022-09-13T23:16:32.061Z,9.38
2022-09-13T23:19:00.233Z,10.20
2022-09-13T23:21:31.015Z,9.57
2022-09-13T23:23:59.809Z,10.80
2022-09-13T23:26:29.317Z,10.68
2022-09-13T23:28:58.459Z,10.50
2022-09-13T23:31:28.821Z,10.10
2022-09-13T23:34:02.054Z,11.00
2022-09-13T23:36:31.757Z,10.30
2022-09-13T23:38:59.325Z,10.85
2022-09-13T23:41:27.171Z,9.95
2022-09-13T23:43:54.353Z,10.40
2022-09-13T23:46:24.189Z,10.73
2022-09-13T23:48:52.045Z,10.48
2022-09-13T23:51:25.723Z,9.93
2022-09-13T23:53:57.184Z,9.27
2022-09-13T23:56:26.715Z,10.30
2022-09-13T23:58:56.334Z,10.43
